N129NB KSLC-
Flight info
| Callsign | N129NB |
|---|---|
| Flight time | N/A |
| Altitude | VFR/050 |
| Route | /S/ |
| Aircraft | H125/L-DOV/C |
Departure
| Time | 2026-05-05 06:11 |
|---|---|
| Airport | Salt Lake City International Airport (KSLC) |
Arrival
| Time | N/A |
|---|---|
| Airport | - |
| Time | Latitude | Longitude | Altitude | Speed | Heading |
|---|---|---|---|---|---|
| 2026-05-05 06:01 | 41.18640 | -112.01592 | 4450 ft | 0 kts | 360° |
| 2026-05-05 06:08 | 41.18655 | -112.01592 | 4457 ft | 7 kts | 1° |
| 2026-05-05 06:08 | 41.18638 | -112.01542 | 4507 ft | 20 kts | 215° |
| 2026-05-05 06:08 | 41.18466 | -112.01886 | 4671 ft | 67 kts | 251° |
| 2026-05-05 06:09 | 41.18227 | -112.02549 | 4822 ft | 86 kts | 233° |
| 2026-05-05 06:09 | 41.17780 | -112.03119 | 4934 ft | 93 kts | 229° |
| 2026-05-05 06:09 | 41.17351 | -112.03793 | 5013 ft | 99 kts | 235° |
| 2026-05-05 06:09 | 41.16942 | -112.04556 | 5084 ft | 102 kts | 237° |
| 2026-05-05 06:10 | 41.16557 | -112.05312 | 5183 ft | 104 kts | 238° |
| 2026-05-05 06:10 | 41.16198 | -112.06142 | 5290 ft | 102 kts | 244° |
| 2026-05-05 06:10 | 41.15915 | -112.07003 | 5374 ft | 105 kts | 250° |
| 2026-05-05 06:10 | 41.15691 | -112.07983 | 5327 ft | 116 kts | 256° |
| 2026-05-05 06:11 | 41.15344 | -112.08877 | 5406 ft | 103 kts | 219° |
| 2026-05-05 06:11 | 41.14674 | -112.09101 | 5432 ft | 104 kts | 186° |
| 2026-05-05 06:11 | 41.13925 | -112.09101 | 5402 ft | 110 kts | 184° |
| 2026-05-05 06:11 | 41.13145 | -112.09125 | 5359 ft | 113 kts | 185° |
| 2026-05-05 06:12 | 41.12379 | -112.08981 | 5410 ft | 110 kts | 165° |
| 2026-05-05 06:12 | 41.11674 | -112.08523 | 5334 ft | 117 kts | 161° |
| 2026-05-05 06:12 | 41.10867 | -112.08286 | 5262 ft | 116 kts | 183° |
| 2026-05-05 06:12 | 41.10061 | -112.08402 | 5237 ft | 114 kts | 192° |
| 2026-05-05 06:13 | 41.09270 | -112.08535 | 5229 ft | 112 kts | 192° |
| 2026-05-05 06:13 | 41.08561 | -112.08910 | 5303 ft | 105 kts | 209° |
| 2026-05-05 06:13 | 41.07991 | -112.09455 | 5454 ft | 106 kts | 231° |
| 2026-05-05 06:13 | 41.07918 | -112.10422 | 5688 ft | 108 kts | 278° |
| 2026-05-05 06:14 | 41.08070 | -112.11375 | 5916 ft | 106 kts | 276° |
| 2026-05-05 06:14 | 41.08395 | -112.12325 | 5931 ft | 125 kts | 304° |
| 2026-05-05 06:14 | 41.09163 | -112.12991 | 5911 ft | 137 kts | 343° |
| 2026-05-05 06:14 | 41.10110 | -112.13200 | 5956 ft | 138 kts | 6° |
| 2026-05-05 06:15 | 41.10943 | -112.12633 | 5927 ft | 140 kts | 55° |
| 2026-05-05 06:15 | 41.11688 | -112.11816 | 5879 ft | 139 kts | 45° |
| 2026-05-05 06:15 | 41.12310 | -112.10868 | 5644 ft | 135 kts | 59° |
| 2026-05-05 06:15 | 41.12892 | -112.10043 | 5875 ft | 112 kts | 50° |
| 2026-05-05 06:16 | 41.13421 | -112.09354 | 6002 ft | 110 kts | 53° |
| 2026-05-05 06:16 | 41.13961 | -112.08509 | 5816 ft | 123 kts | 52° |
| 2026-05-05 06:16 | 41.14551 | -112.07678 | 5644 ft | 125 kts | 52° |
| 2026-05-05 06:16 | 41.15165 | -112.06841 | 5468 ft | 125 kts | 51° |
| 2026-05-05 06:17 | 41.15756 | -112.06062 | 5306 ft | 114 kts | 50° |
| 2026-05-05 06:17 | 41.16282 | -112.05372 | 5170 ft | 99 kts | 50° |
| 2026-05-05 06:17 | 41.16745 | -112.04768 | 5052 ft | 88 kts | 51° |
| 2026-05-05 06:17 | 41.17163 | -112.04223 | 4948 ft | 81 kts | 50° |
| 2026-05-05 06:18 | 41.17572 | -112.03687 | 4837 ft | 83 kts | 51° |
| 2026-05-05 06:18 | 41.17986 | -112.03145 | 4726 ft | 86 kts | 50° |
| 2026-05-05 06:18 | 41.18409 | -112.02591 | 4615 ft | 85 kts | 50° |
| 2026-05-05 06:18 | 41.18805 | -112.02071 | 4514 ft | 74 kts | 51° |
| 2026-05-05 06:19 | 41.19124 | -112.01623 | 4492 ft | 55 kts | 48° |
| 2026-05-05 06:19 | 41.19333 | -112.01329 | 4470 ft | 34 kts | 56° |
| 2026-05-05 06:19 | 41.19339 | -112.01177 | 4463 ft | 14 kts | 195° |
| 2026-05-05 06:19 | 41.19308 | -112.00910 | 4458 ft | 41 kts | 79° |
| 2026-05-05 06:20 | 41.19495 | -112.00631 | 4523 ft | 62 kts | 351° |
| 2026-05-05 06:20 | 41.19633 | -112.00437 | 4478 ft | 29 kts | 159° |
| 2026-05-05 06:20 | 41.19565 | -112.00426 | 4433 ft | 7 kts | 193° |
| 2026-05-05 06:20 | 41.19564 | -112.00425 | 4425 ft | 0 kts | 185° |
| 2026-05-05 06:21 | 41.19564 | -112.00420 | 4436 ft | 2 kts | 221° |
| 2026-05-05 06:22 | 41.19681 | -112.00584 | 4560 ft | 43 kts | 334° |
| 2026-05-05 06:22 | 41.20067 | -112.00585 | 4699 ft | 73 kts | 46° |
| 2026-05-05 06:22 | 41.20545 | -112.00278 | 4764 ft | 87 kts | 20° |
| 2026-05-05 06:22 | 41.21267 | -112.00066 | 4713 ft | 116 kts | 20° |
| 2026-05-05 06:23 | 41.22076 | -112.00082 | 4723 ft | 118 kts | 348° |
| 2026-05-05 06:23 | 41.22757 | -112.00254 | 4867 ft | 107 kts | 57° |
| 2026-05-05 06:23 | 41.22414 | -111.99770 | 4836 ft | 97 kts | 200° |
| 2026-05-05 06:23 | 41.21812 | -112.00085 | 4992 ft | 94 kts | 239° |
| 2026-05-05 06:24 | 41.21758 | -112.01025 | 5035 ft | 108 kts | 275° |
| 2026-05-05 06:24 | 41.21417 | -112.01578 | 5020 ft | 84 kts | 169° |
| 2026-05-05 06:24 | 41.20854 | -112.01372 | 4679 ft | 83 kts | 180° |
| 2026-05-05 06:24 | 41.20329 | -112.01500 | 4490 ft | 67 kts | 181° |
| 2026-05-05 06:25 | 41.20066 | -112.01496 | 4436 ft | 8 kts | 166° |
| 2026-05-05 06:25 | 41.20061 | -112.01495 | 4432 ft | 0 kts | 177° |
| 2026-05-05 06:25 | 41.20051 | -112.01495 | 4432 ft | 0 kts | 182° |
| 2026-05-05 06:26 | 41.20049 | -112.01495 | 4476 ft | 7 kts | 180° |
| 2026-05-05 06:26 | 41.20067 | -112.01490 | 4749 ft | 12 kts | 177° |
| 2026-05-05 06:26 | 41.20111 | -112.01483 | 5024 ft | 12 kts | 179° |
| 2026-05-05 06:27 | 41.20145 | -112.01477 | 5287 ft | 11 kts | 182° |
| 2026-05-05 06:27 | 41.19951 | -112.01472 | 4655 ft | 94 kts | 193° |
| 2026-05-05 06:27 | 41.19366 | -112.01489 | 4508 ft | 67 kts | 178° |
| 2026-05-05 06:28 | 41.19041 | -112.01491 | 4448 ft | 21 kts | 185° |